sensor_id;sensor_type;location;lat;lon;timestamp;P1;durP1;ratioP1;P2;durP2;ratioP2
55288;SDS011;41154;45.394;5.734;2023-12-20T00:01:48;59.50;;;18.50;;
55288;SDS011;41154;45.394;5.734;2023-12-20T00:04:14;56.22;;;20.27;;
55288;SDS011;41154;45.394;5.734;2023-12-20T00:06:40;51.75;;;18.52;;
55288;SDS011;41154;45.394;5.734;2023-12-20T00:09:05;58.33;;;20.02;;
55288;SDS011;41154;45.394;5.734;2023-12-20T00:11:31;46.88;;;17.67;;
55288;SDS011;41154;45.394;5.734;2023-12-20T00:13:56;53.38;;;17.27;;
55288;SDS011;41154;45.394;5.734;2023-12-20T00:16:22;51.08;;;18.52;;
55288;SDS011;41154;45.394;5.734;2023-12-20T00:18:47;59.15;;;18.80;;
55288;SDS011;41154;45.394;5.734;2023-12-20T00:21:13;57.53;;;18.30;;
55288;SDS011;41154;45.394;5.734;2023-12-20T00:23:38;53.15;;;18.52;;
55288;SDS011;41154;45.394;5.734;2023-12-20T00:26:04;55.30;;;19.08;;
55288;SDS011;41154;45.394;5.734;2023-12-20T00:28:29;64.53;;;18.60;;
55288;SDS011;41154;45.394;5.734;2023-12-20T00:30:55;51.92;;;19.35;;
55288;SDS011;41154;45.394;5.734;2023-12-20T00:33:20;56.58;;;18.98;;
55288;SDS011;41154;45.394;5.734;2023-12-20T00:35:46;51.35;;;19.35;;
55288;SDS011;41154;45.394;5.734;2023-12-20T00:38:11;50.72;;;18.25;;
55288;SDS011;41154;45.394;5.734;2023-12-20T00:40:37;47.33;;;18.83;;
55288;SDS011;41154;45.394;5.734;2023-12-20T00:43:03;55.63;;;19.70;;
55288;SDS011;41154;45.394;5.734;2023-12-20T00:45:28;63.58;;;20.85;;
55288;SDS011;41154;45.394;5.734;2023-12-20T00:47:54;64.38;;;21.02;;
55288;SDS011;41154;45.394;5.734;2023-12-20T00:50:19;56.85;;;19.15;;
55288;SDS011;41154;45.394;5.734;2023-12-20T00:52:47;69.03;;;18.63;;
55288;SDS011;41154;45.394;5.734;2023-12-20T00:55:12;52.83;;;18.58;;
55288;SDS011;41154;45.394;5.734;2023-12-20T00:57:37;59.67;;;18.00;;
55288;SDS011;41154;45.394;5.734;2023-12-20T01:00:03;51.95;;;18.77;;
55288;SDS011;41154;45.394;5.734;2023-12-20T01:02:29;51.20;;;19.08;;
55288;SDS011;41154;45.394;5.734;2023-12-20T01:04:54;60.38;;;20.70;;
55288;SDS011;41154;45.394;5.734;2023-12-20T01:07:20;53.15;;;18.58;;
55288;SDS011;41154;45.394;5.734;2023-12-20T01:09:45;42.88;;;17.90;;
55288;SDS011;41154;45.394;5.734;2023-12-20T01:12:11;43.03;;;17.17;;
55288;SDS011;41154;45.394;5.734;2023-12-20T01:14:36;44.83;;;18.83;;
55288;SDS011;41154;45.394;5.734;2023-12-20T01:17:02;46.53;;;17.60;;
55288;SDS011;41154;45.394;5.734;2023-12-20T01:19:27;51.88;;;17.95;;
55288;SDS011;41154;45.394;5.734;2023-12-20T01:21:54;43.20;;;16.48;;
55288;SDS011;41154;45.394;5.734;2023-12-20T01:24:20;51.85;;;19.10;;
55288;SDS011;41154;45.394;5.734;2023-12-20T01:26:46;44.47;;;18.75;;
55288;SDS011;41154;45.394;5.734;2023-12-20T01:29:11;42.38;;;17.35;;
55288;SDS011;41154;45.394;5.734;2023-12-20T01:31:38;46.53;;;18.63;;
55288;SDS011;41154;45.394;5.734;2023-12-20T01:34:03;45.83;;;18.50;;
55288;SDS011;41154;45.394;5.734;2023-12-20T01:36:29;49.72;;;20.23;;
55288;SDS011;41154;45.394;5.734;2023-12-20T01:38:54;55.03;;;21.30;;
55288;SDS011;41154;45.394;5.734;2023-12-20T01:41:20;46.28;;;18.08;;
55288;SDS011;41154;45.394;5.734;2023-12-20T01:43:45;44.80;;;19.35;;
55288;SDS011;41154;45.394;5.734;2023-12-20T01:46:11;47.53;;;18.25;;
55288;SDS011;41154;45.394;5.734;2023-12-20T01:48:37;46.13;;;18.08;;
55288;SDS011;41154;45.394;5.734;2023-12-20T01:51:03;46.75;;;18.75;;
55288;SDS011;41154;45.394;5.734;2023-12-20T01:53:29;41.85;;;19.02;;
55288;SDS011;41154;45.394;5.734;2023-12-20T01:55:55;50.53;;;19.08;;
55288;SDS011;41154;45.394;5.734;2023-12-20T01:58:21;42.42;;;17.58;;
55288;SDS011;41154;45.394;5.734;2023-12-20T02:00:47;46.05;;;18.27;;
55288;SDS011;41154;45.394;5.734;2023-12-20T02:03:13;44.45;;;16.73;;
55288;SDS011;41154;45.394;5.734;2023-12-20T02:05:39;43.35;;;18.58;;
55288;SDS011;41154;45.394;5.734;2023-12-20T02:08:04;38.28;;;16.83;;
55288;SDS011;41154;45.394;5.734;2023-12-20T02:10:31;39.22;;;17.20;;
55288;SDS011;41154;45.394;5.734;2023-12-20T02:12:56;41.65;;;17.50;;
55288;SDS011;41154;45.394;5.734;2023-12-20T02:15:22;37.17;;;17.10;;
55288;SDS011;41154;45.394;5.734;2023-12-20T02:17:48;44.13;;;19.27;;
55288;SDS011;41154;45.394;5.734;2023-12-20T02:20:14;43.00;;;18.50;;
55288;SDS011;41154;45.394;5.734;2023-12-20T02:22:39;42.20;;;17.40;;
55288;SDS011;41154;45.394;5.734;2023-12-20T02:25:05;44.42;;;19.17;;
55288;SDS011;41154;45.394;5.734;2023-12-20T02:27:31;35.03;;;16.98;;
55288;SDS011;41154;45.394;5.734;2023-12-20T02:29:56;46.85;;;18.55;;
55288;SDS011;41154;45.394;5.734;2023-12-20T02:32:22;47.45;;;20.00;;
55288;SDS011;41154;45.394;5.734;2023-12-20T02:34:48;43.97;;;19.48;;
55288;SDS011;41154;45.394;5.734;2023-12-20T02:37:14;39.53;;;18.58;;
55288;SDS011;41154;45.394;5.734;2023-12-20T02:39:39;35.58;;;15.88;;
55288;SDS011;41154;45.394;5.734;2023-12-20T02:42:05;40.22;;;17.98;;
55288;SDS011;41154;45.394;5.734;2023-12-20T02:44:31;36.30;;;16.25;;
55288;SDS011;41154;45.394;5.734;2023-12-20T02:46:56;35.75;;;17.40;;
55288;SDS011;41154;45.394;5.734;2023-12-20T02:49:22;32.47;;;16.88;;
55288;SDS011;41154;45.394;5.734;2023-12-20T02:51:47;36.42;;;16.90;;
55288;SDS011;41154;45.394;5.734;2023-12-20T02:54:13;31.90;;;16.33;;
55288;SDS011;41154;45.394;5.734;2023-12-20T02:56:38;33.95;;;16.65;;
55288;SDS011;41154;45.394;5.734;2023-12-20T02:59:04;29.90;;;15.02;;
55288;SDS011;41154;45.394;5.734;2023-12-20T03:01:31;36.90;;;16.65;;
55288;SDS011;41154;45.394;5.734;2023-12-20T03:03:56;31.83;;;15.95;;
55288;SDS011;41154;45.394;5.734;2023-12-20T03:06:22;32.50;;;16.42;;
55288;SDS011;41154;45.394;5.734;2023-12-20T03:08:48;33.30;;;15.80;;
55288;SDS011;41154;45.394;5.734;2023-12-20T03:11:13;33.17;;;16.08;;
55288;SDS011;41154;45.394;5.734;2023-12-20T03:13:39;37.28;;;16.88;;
55288;SDS011;41154;45.394;5.734;2023-12-20T03:16:08;33.53;;;16.35;;
55288;SDS011;41154;45.394;5.734;2023-12-20T03:18:34;36.58;;;16.80;;
55288;SDS011;41154;45.394;5.734;2023-12-20T03:20:59;37.55;;;16.50;;
55288;SDS011;41154;45.394;5.734;2023-12-20T03:23:25;35.10;;;16.92;;
55288;SDS011;41154;45.394;5.734;2023-12-20T03:25:51;35.45;;;15.73;;
55288;SDS011;41154;45.394;5.734;2023-12-20T03:28:17;40.90;;;18.33;;
55288;SDS011;41154;45.394;5.734;2023-12-20T03:30:42;44.28;;;18.05;;
55288;SDS011;41154;45.394;5.734;2023-12-20T03:33:07;36.72;;;17.73;;
55288;SDS011;41154;45.394;5.734;2023-12-20T03:35:33;35.72;;;17.40;;
55288;SDS011;41154;45.394;5.734;2023-12-20T03:37:58;36.40;;;17.67;;
55288;SDS011;41154;45.394;5.734;2023-12-20T03:40:25;33.03;;;16.42;;
55288;SDS011;41154;45.394;5.734;2023-12-20T03:42:51;34.80;;;17.40;;
55288;SDS011;41154;45.394;5.734;2023-12-20T03:45:16;32.63;;;16.50;;
55288;SDS011;41154;45.394;5.734;2023-12-20T03:47:42;36.35;;;16.52;;
55288;SDS011;41154;45.394;5.734;2023-12-20T03:50:07;35.50;;;15.52;;
55288;SDS011;41154;45.394;5.734;2023-12-20T03:52:33;33.50;;;15.90;;
55288;SDS011;41154;45.394;5.734;2023-12-20T03:54:58;37.30;;;16.10;;
55288;SDS011;41154;45.394;5.734;2023-12-20T03:57:24;33.38;;;16.15;;
55288;SDS011;41154;45.394;5.734;2023-12-20T03:59:49;36.08;;;17.00;;
55288;SDS011;41154;45.394;5.734;2023-12-20T04:02:15;36.13;;;16.15;;
55288;SDS011;41154;45.394;5.734;2023-12-20T04:04:40;32.47;;;16.27;;
55288;SDS011;41154;45.394;5.734;2023-12-20T04:07:07;35.33;;;16.45;;
55288;SDS011;41154;45.394;5.734;2023-12-20T04:09:32;37.53;;;16.73;;
55288;SDS011;41154;45.394;5.734;2023-12-20T04:11:58;31.55;;;16.83;;
55288;SDS011;41154;45.394;5.734;2023-12-20T04:14:23;31.27;;;16.02;;
55288;SDS011;41154;45.394;5.734;2023-12-20T04:16:51;30.38;;;14.70;;
55288;SDS011;41154;45.394;5.734;2023-12-20T04:19:16;37.20;;;15.85;;
55288;SDS011;41154;45.394;5.734;2023-12-20T04:21:42;28.33;;;14.82;;
55288;SDS011;41154;45.394;5.734;2023-12-20T04:24:07;30.98;;;16.10;;
55288;SDS011;41154;45.394;5.734;2023-12-20T04:26:33;36.75;;;17.33;;
55288;SDS011;41154;45.394;5.734;2023-12-20T04:28:59;36.30;;;16.15;;
55288;SDS011;41154;45.394;5.734;2023-12-20T04:31:24;37.10;;;17.05;;
55288;SDS011;41154;45.394;5.734;2023-12-20T04:33:49;30.20;;;15.45;;
55288;SDS011;41154;45.394;5.734;2023-12-20T04:36:15;32.97;;;15.70;;
55288;SDS011;41154;45.394;5.734;2023-12-20T04:38:41;36.80;;;16.25;;
55288;SDS011;41154;45.394;5.734;2023-12-20T04:41:06;30.05;;;15.45;;
55288;SDS011;41154;45.394;5.734;2023-12-20T04:43:32;35.63;;;16.50;;
55288;SDS011;41154;45.394;5.734;2023-12-20T04:45:57;31.60;;;14.98;;
55288;SDS011;41154;45.394;5.734;2023-12-20T04:48:23;31.52;;;16.10;;
55288;SDS011;41154;45.394;5.734;2023-12-20T04:50:48;36.78;;;15.80;;
55288;SDS011;41154;45.394;5.734;2023-12-20T04:53:14;34.00;;;16.23;;
55288;SDS011;41154;45.394;5.734;2023-12-20T04:55:39;29.50;;;14.90;;
55288;SDS011;41154;45.394;5.734;2023-12-20T04:58:05;28.20;;;15.02;;
55288;SDS011;41154;45.394;5.734;2023-12-20T05:00:30;26.67;;;14.50;;
55288;SDS011;41154;45.394;5.734;2023-12-20T05:02:56;31.70;;;14.48;;
55288;SDS011;41154;45.394;5.734;2023-12-20T05:05:22;29.83;;;14.88;;
55288;SDS011;41154;45.394;5.734;2023-12-20T05:07:47;27.25;;;14.35;;
55288;SDS011;41154;45.394;5.734;2023-12-20T05:10:13;26.55;;;14.25;;
55288;SDS011;41154;45.394;5.734;2023-12-20T05:12:38;29.55;;;14.98;;
55288;SDS011;41154;45.394;5.734;2023-12-20T05:15:05;32.20;;;15.77;;
55288;SDS011;41154;45.394;5.734;2023-12-20T05:17:31;33.83;;;15.52;;
55288;SDS011;41154;45.394;5.734;2023-12-20T05:19:56;29.88;;;15.05;;
55288;SDS011;41154;45.394;5.734;2023-12-20T05:22:22;30.25;;;15.63;;
55288;SDS011;41154;45.394;5.734;2023-12-20T05:24:47;36.15;;;16.58;;
55288;SDS011;41154;45.394;5.734;2023-12-20T05:27:13;30.42;;;15.48;;
55288;SDS011;41154;45.394;5.734;2023-12-20T05:29:39;28.50;;;15.23;;
55288;SDS011;41154;45.394;5.734;2023-12-20T05:32:04;35.88;;;16.13;;
55288;SDS011;41154;45.394;5.734;2023-12-20T05:34:30;31.38;;;15.82;;
55288;SDS011;41154;45.394;5.734;2023-12-20T05:36:56;28.58;;;16.23;;
55288;SDS011;41154;45.394;5.734;2023-12-20T05:39:21;33.60;;;16.00;;
55288;SDS011;41154;45.394;5.734;2023-12-20T05:41:47;32.55;;;16.70;;
55288;SDS011;41154;45.394;5.734;2023-12-20T05:44:13;34.05;;;16.67;;
55288;SDS011;41154;45.394;5.734;2023-12-20T05:46:38;39.85;;;17.67;;
55288;SDS011;41154;45.394;5.734;2023-12-20T05:49:05;35.35;;;17.48;;
55288;SDS011;41154;45.394;5.734;2023-12-20T05:51:30;34.33;;;16.25;;
55288;SDS011;41154;45.394;5.734;2023-12-20T05:53:56;34.17;;;16.98;;
55288;SDS011;41154;45.394;5.734;2023-12-20T05:56:21;33.22;;;16.90;;
55288;SDS011;41154;45.394;5.734;2023-12-20T05:58:47;29.52;;;15.80;;
55288;SDS011;41154;45.394;5.734;2023-12-20T06:01:14;31.88;;;16.23;;
55288;SDS011;41154;45.394;5.734;2023-12-20T06:03:41;29.73;;;15.48;;
55288;SDS011;41154;45.394;5.734;2023-12-20T06:06:07;31.30;;;16.60;;
55288;SDS011;41154;45.394;5.734;2023-12-20T06:08:32;37.70;;;18.10;;
55288;SDS011;41154;45.394;5.734;2023-12-20T06:10:58;37.17;;;17.77;;
55288;SDS011;41154;45.394;5.734;2023-12-20T06:13:23;38.08;;;20.25;;
55288;SDS011;41154;45.394;5.734;2023-12-20T06:15:49;30.65;;;16.70;;
55288;SDS011;41154;45.394;5.734;2023-12-20T06:18:14;30.02;;;15.63;;
55288;SDS011;41154;45.394;5.734;2023-12-20T06:20:40;35.72;;;17.15;;
55288;SDS011;41154;45.394;5.734;2023-12-20T06:23:05;29.83;;;16.35;;
55288;SDS011;41154;45.394;5.734;2023-12-20T06:25:30;30.45;;;16.73;;
55288;SDS011;41154;45.394;5.734;2023-12-20T06:27:56;32.28;;;16.23;;
55288;SDS011;41154;45.394;5.734;2023-12-20T06:30:21;36.05;;;18.98;;
55288;SDS011;41154;45.394;5.734;2023-12-20T06:32:47;36.58;;;18.23;;
55288;SDS011;41154;45.394;5.734;2023-12-20T06:35:13;36.95;;;19.75;;
55288;SDS011;41154;45.394;5.734;2023-12-20T06:37:38;34.00;;;18.02;;
55288;SDS011;41154;45.394;5.734;2023-12-20T06:40:08;31.10;;;16.85;;
55288;SDS011;41154;45.394;5.734;2023-12-20T06:42:34;34.25;;;17.13;;
55288;SDS011;41154;45.394;5.734;2023-12-20T06:44:59;35.03;;;16.98;;
55288;SDS011;41154;45.394;5.734;2023-12-20T06:47:25;28.27;;;16.10;;
55288;SDS011;41154;45.394;5.734;2023-12-20T06:49:51;32.25;;;16.33;;
55288;SDS011;41154;45.394;5.734;2023-12-20T06:52:17;31.13;;;16.77;;
55288;SDS011;41154;45.394;5.734;2023-12-20T06:54:42;31.83;;;16.40;;
55288;SDS011;41154;45.394;5.734;2023-12-20T06:57:08;38.83;;;19.50;;
55288;SDS011;41154;45.394;5.734;2023-12-20T06:59:38;35.15;;;18.50;;
55288;SDS011;41154;45.394;5.734;2023-12-20T07:02:03;34.65;;;17.88;;
55288;SDS011;41154;45.394;5.734;2023-12-20T07:04:30;36.70;;;20.48;;
55288;SDS011;41154;45.394;5.734;2023-12-20T07:06:55;36.85;;;18.23;;
55288;SDS011;41154;45.394;5.734;2023-12-20T07:09:22;38.30;;;19.70;;
55288;SDS011;41154;45.394;5.734;2023-12-20T07:11:48;35.40;;;18.65;;
55288;SDS011;41154;45.394;5.734;2023-12-20T07:14:14;34.65;;;17.98;;
55288;SDS011;41154;45.394;5.734;2023-12-20T07:16:39;35.28;;;18.27;;
55288;SDS011;41154;45.394;5.734;2023-12-20T07:19:05;30.27;;;16.58;;
55288;SDS011;41154;45.394;5.734;2023-12-20T07:21:31;30.85;;;16.65;;
55288;SDS011;41154;45.394;5.734;2023-12-20T07:23:57;35.22;;;17.38;;
55288;SDS011;41154;45.394;5.734;2023-12-20T07:26:23;29.73;;;17.17;;
55288;SDS011;41154;45.394;5.734;2023-12-20T07:28:49;38.67;;;18.77;;
55288;SDS011;41154;45.394;5.734;2023-12-20T07:31:15;31.40;;;17.73;;
55288;SDS011;41154;45.394;5.734;2023-12-20T07:33:40;38.17;;;19.25;;
55288;SDS011;41154;45.394;5.734;2023-12-20T07:36:08;42.15;;;20.92;;
55288;SDS011;41154;45.394;5.734;2023-12-20T07:38:34;42.70;;;20.38;;
55288;SDS011;41154;45.394;5.734;2023-12-20T07:40:59;38.05;;;18.17;;
55288;SDS011;41154;45.394;5.734;2023-12-20T07:43:25;31.63;;;16.88;;
55288;SDS011;41154;45.394;5.734;2023-12-20T07:45:50;33.85;;;17.42;;
55288;SDS011;41154;45.394;5.734;2023-12-20T07:48:15;29.73;;;15.95;;
55288;SDS011;41154;45.394;5.734;2023-12-20T07:50:41;31.27;;;15.73;;
55288;SDS011;41154;45.394;5.734;2023-12-20T07:53:07;33.20;;;17.02;;
55288;SDS011;41154;45.394;5.734;2023-12-20T07:55:33;34.42;;;18.83;;
55288;SDS011;41154;45.394;5.734;2023-12-20T07:57:59;35.38;;;18.92;;
55288;SDS011;41154;45.394;5.734;2023-12-20T08:00:25;41.63;;;19.17;;
55288;SDS011;41154;45.394;5.734;2023-12-20T08:02:50;42.22;;;20.17;;
55288;SDS011;41154;45.394;5.734;2023-12-20T08:05:16;38.40;;;19.25;;
55288;SDS011;41154;45.394;5.734;2023-12-20T08:07:41;42.28;;;19.77;;
55288;SDS011;41154;45.394;5.734;2023-12-20T08:10:07;37.75;;;19.70;;
55288;SDS011;41154;45.394;5.734;2023-12-20T08:12:32;39.38;;;21.05;;
55288;SDS011;41154;45.394;5.734;2023-12-20T08:14:58;38.28;;;20.50;;
55288;SDS011;41154;45.394;5.734;2023-12-20T08:17:24;40.55;;;20.55;;
55288;SDS011;41154;45.394;5.734;2023-12-20T08:19:50;41.83;;;20.88;;
55288;SDS011;41154;45.394;5.734;2023-12-20T08:22:16;37.45;;;20.60;;
55288;SDS011;41154;45.394;5.734;2023-12-20T08:24:41;34.22;;;17.77;;
55288;SDS011;41154;45.394;5.734;2023-12-20T08:27:07;36.10;;;19.33;;
55288;SDS011;41154;45.394;5.734;2023-12-20T08:29:32;31.83;;;16.98;;
55288;SDS011;41154;45.394;5.734;2023-12-20T08:31:58;36.17;;;19.08;;
55288;SDS011;41154;45.394;5.734;2023-12-20T08:34:24;31.95;;;16.83;;
55288;SDS011;41154;45.394;5.734;2023-12-20T08:36:50;28.35;;;15.15;;
55288;SDS011;41154;45.394;5.734;2023-12-20T08:39:16;33.42;;;18.15;;
55288;SDS011;41154;45.394;5.734;2023-12-20T08:41:42;30.10;;;16.25;;
55288;SDS011;41154;45.394;5.734;2023-12-20T08:44:22;31.55;;;17.10;;
55288;SDS011;41154;45.394;5.734;2023-12-20T08:46:48;33.28;;;17.45;;
55288;SDS011;41154;45.394;5.734;2023-12-20T08:49:13;34.85;;;18.58;;
55288;SDS011;41154;45.394;5.734;2023-12-20T08:51:39;32.25;;;17.77;;
55288;SDS011;41154;45.394;5.734;2023-12-20T08:54:06;33.72;;;18.23;;
55288;SDS011;41154;45.394;5.734;2023-12-20T08:56:33;32.28;;;17.35;;
55288;SDS011;41154;45.394;5.734;2023-12-20T08:58:59;33.72;;;18.90;;
55288;SDS011;41154;45.394;5.734;2023-12-20T09:04:30;31.27;;;16.55;;
55288;SDS011;41154;45.394;5.734;2023-12-20T09:06:59;34.42;;;17.88;;
55288;SDS011;41154;45.394;5.734;2023-12-20T09:12:17;33.83;;;18.23;;
55288;SDS011;41154;45.394;5.734;2023-12-20T09:14:42;35.97;;;19.45;;
55288;SDS011;41154;45.394;5.734;2023-12-20T09:17:08;33.90;;;17.60;;
55288;SDS011;41154;45.394;5.734;2023-12-20T09:19:35;24.38;;;14.73;;
55288;SDS011;41154;45.394;5.734;2023-12-20T09:24:56;39.63;;;19.60;;
55288;SDS011;41154;45.394;5.734;2023-12-20T09:30:27;51.10;;;25.25;;
55288;SDS011;41154;45.394;5.734;2023-12-20T09:32:55;43.33;;;21.67;;
55288;SDS011;41154;45.394;5.734;2023-12-20T09:35:20;37.88;;;19.35;;
55288;SDS011;41154;45.394;5.734;2023-12-20T09:37:48;34.13;;;18.40;;
55288;SDS011;41154;45.394;5.734;2023-12-20T09:40:14;31.30;;;17.20;;
55288;SDS011;41154;45.394;5.734;2023-12-20T09:45:11;31.60;;;16.42;;
55288;SDS011;41154;45.394;5.734;2023-12-20T09:47:39;29.40;;;16.48;;
55288;SDS011;41154;45.394;5.734;2023-12-20T09:50:04;27.25;;;15.32;;
55288;SDS011;41154;45.394;5.734;2023-12-20T09:52:30;25.17;;;14.38;;
55288;SDS011;41154;45.394;5.734;2023-12-20T09:54:56;28.25;;;15.93;;
55288;SDS011;41154;45.394;5.734;2023-12-20T09:57:22;26.17;;;12.93;;
55288;SDS011;41154;45.394;5.734;2023-12-20T09:59:48;26.77;;;13.38;;
55288;SDS011;41154;45.394;5.734;2023-12-20T10:02:13;27.70;;;12.18;;
55288;SDS011;41154;45.394;5.734;2023-12-20T10:04:43;28.98;;;13.05;;
55288;SDS011;41154;45.394;5.734;2023-12-20T10:07:11;31.05;;;12.65;;
55288;SDS011;41154;45.394;5.734;2023-12-20T10:09:36;31.33;;;13.70;;
55288;SDS011;41154;45.394;5.734;2023-12-20T10:12:02;30.40;;;13.48;;
55288;SDS011;41154;45.394;5.734;2023-12-20T10:14:28;38.28;;;15.27;;
55288;SDS011;41154;45.394;5.734;2023-12-20T10:16:53;41.05;;;15.35;;
55288;SDS011;41154;45.394;5.734;2023-12-20T10:19:26;33.75;;;14.82;;
55288;SDS011;41154;45.394;5.734;2023-12-20T10:21:52;39.85;;;15.45;;
55288;SDS011;41154;45.394;5.734;2023-12-20T10:24:17;36.90;;;19.88;;
55288;SDS011;41154;45.394;5.734;2023-12-20T10:26:43;32.67;;;16.88;;
55288;SDS011;41154;45.394;5.734;2023-12-20T10:29:08;33.65;;;17.80;;
55288;SDS011;41154;45.394;5.734;2023-12-20T10:31:35;33.28;;;17.58;;
55288;SDS011;41154;45.394;5.734;2023-12-20T10:34:01;36.97;;;17.58;;
55288;SDS011;41154;45.394;5.734;2023-12-20T10:36:27;41.92;;;17.35;;
55288;SDS011;41154;45.394;5.734;2023-12-20T10:38:53;34.85;;;16.13;;
55288;SDS011;41154;45.394;5.734;2023-12-20T10:41:22;39.88;;;17.50;;
55288;SDS011;41154;45.394;5.734;2023-12-20T10:43:48;41.47;;;17.83;;
55288;SDS011;41154;45.394;5.734;2023-12-20T10:46:13;40.67;;;15.60;;
55288;SDS011;41154;45.394;5.734;2023-12-20T10:48:39;50.30;;;21.38;;
55288;SDS011;41154;45.394;5.734;2023-12-20T10:51:05;52.25;;;21.35;;
55288;SDS011;41154;45.394;5.734;2023-12-20T10:53:31;35.83;;;15.35;;
55288;SDS011;41154;45.394;5.734;2023-12-20T10:55:57;35.78;;;14.85;;
55288;SDS011;41154;45.394;5.734;2023-12-20T10:58:25;25.98;;;12.50;;
55288;SDS011;41154;45.394;5.734;2023-12-20T11:00:51;29.40;;;11.57;;
55288;SDS011;41154;45.394;5.734;2023-12-20T11:03:21;23.75;;;10.82;;
55288;SDS011;41154;45.394;5.734;2023-12-20T11:05:55;27.00;;;11.45;;
55288;SDS011;41154;45.394;5.734;2023-12-20T11:08:45;23.70;;;9.88;;
55288;SDS011;41154;45.394;5.734;2023-12-20T11:11:13;32.53;;;11.95;;
55288;SDS011;41154;45.394;5.734;2023-12-20T11:13:41;27.02;;;10.38;;
55288;SDS011;41154;45.394;5.734;2023-12-20T11:16:09;23.88;;;10.80;;
55288;SDS011;41154;45.394;5.734;2023-12-20T11:18:35;24.83;;;10.05;;
55288;SDS011;41154;45.394;5.734;2023-12-20T11:21:01;27.02;;;11.88;;
55288;SDS011;41154;45.394;5.734;2023-12-20T11:23:29;24.05;;;10.82;;
55288;SDS011;41154;45.394;5.734;2023-12-20T11:25:55;26.17;;;11.07;;
55288;SDS011;41154;45.394;5.734;2023-12-20T11:31:10;27.30;;;10.88;;
55288;SDS011;41154;45.394;5.734;2023-12-20T11:33:39;25.10;;;10.82;;
55288;SDS011;41154;45.394;5.734;2023-12-20T11:36:14;25.13;;;11.27;;
55288;SDS011;41154;45.394;5.734;2023-12-20T11:38:56;25.88;;;11.10;;
55288;SDS011;41154;45.394;5.734;2023-12-20T11:41:23;25.98;;;11.90;;
55288;SDS011;41154;45.394;5.734;2023-12-20T11:43:49;67.70;;;28.20;;
55288;SDS011;41154;45.394;5.734;2023-12-20T11:46:18;28.40;;;12.93;;
55288;SDS011;41154;45.394;5.734;2023-12-20T11:48:43;25.98;;;12.18;;
55288;SDS011;41154;45.394;5.734;2023-12-20T11:51:13;24.17;;;11.57;;
55288;SDS011;41154;45.394;5.734;2023-12-20T11:53:41;23.67;;;11.02;;
55288;SDS011;41154;45.394;5.734;2023-12-20T11:56:09;28.95;;;14.00;;
55288;SDS011;41154;45.394;5.734;2023-12-20T11:58:35;29.25;;;12.15;;
55288;SDS011;41154;45.394;5.734;2023-12-20T12:01:01;30.17;;;14.05;;
55288;SDS011;41154;45.394;5.734;2023-12-20T12:03:27;32.47;;;14.52;;
55288;SDS011;41154;45.394;5.734;2023-12-20T12:05:53;42.92;;;15.65;;
55288;SDS011;41154;45.394;5.734;2023-12-20T12:08:18;34.80;;;14.32;;
55288;SDS011;41154;45.394;5.734;2023-12-20T12:10:44;32.70;;;14.57;;
55288;SDS011;41154;45.394;5.734;2023-12-20T12:13:10;30.60;;;14.00;;
55288;SDS011;41154;45.394;5.734;2023-12-20T12:15:36;31.98;;;14.38;;
55288;SDS011;41154;45.394;5.734;2023-12-20T12:18:02;34.67;;;14.35;;
55288;SDS011;41154;45.394;5.734;2023-12-20T12:20:27;33.55;;;15.05;;
55288;SDS011;41154;45.394;5.734;2023-12-20T12:23:02;32.05;;;13.10;;
55288;SDS011;41154;45.394;5.734;2023-12-20T12:25:29;26.67;;;13.35;;
55288;SDS011;41154;45.394;5.734;2023-12-20T12:27:56;32.88;;;14.20;;
55288;SDS011;41154;45.394;5.734;2023-12-20T12:30:21;32.70;;;13.63;;
55288;SDS011;41154;45.394;5.734;2023-12-20T12:32:47;33.78;;;14.48;;
55288;SDS011;41154;45.394;5.734;2023-12-20T12:35:13;28.73;;;13.32;;
55288;SDS011;41154;45.394;5.734;2023-12-20T12:37:39;28.25;;;13.27;;
55288;SDS011;41154;45.394;5.734;2023-12-20T12:40:06;29.90;;;13.20;;
55288;SDS011;41154;45.394;5.734;2023-12-20T12:42:31;29.65;;;13.68;;
55288;SDS011;41154;45.394;5.734;2023-12-20T12:48:00;28.83;;;13.45;;
55288;SDS011;41154;45.394;5.734;2023-12-20T12:50:26;29.90;;;13.60;;
55288;SDS011;41154;45.394;5.734;2023-12-20T12:52:53;29.45;;;13.80;;
55288;SDS011;41154;45.394;5.734;2023-12-20T12:55:19;29.00;;;12.93;;
55288;SDS011;41154;45.394;5.734;2023-12-20T12:57:44;31.83;;;13.93;;
55288;SDS011;41154;45.394;5.734;2023-12-20T13:00:10;26.73;;;13.38;;
55288;SDS011;41154;45.394;5.734;2023-12-20T13:02:36;30.55;;;14.10;;
55288;SDS011;41154;45.394;5.734;2023-12-20T13:05:04;28.27;;;12.82;;
55288;SDS011;41154;45.394;5.734;2023-12-20T13:07:29;23.58;;;12.48;;
55288;SDS011;41154;45.394;5.734;2023-12-20T13:09:55;28.60;;;13.80;;
55288;SDS011;41154;45.394;5.734;2023-12-20T13:12:20;31.40;;;14.27;;
55288;SDS011;41154;45.394;5.734;2023-12-20T13:14:46;28.15;;;13.57;;
55288;SDS011;41154;45.394;5.734;2023-12-20T13:17:12;27.88;;;14.15;;
55288;SDS011;41154;45.394;5.734;2023-12-20T13:19:38;24.98;;;13.02;;
55288;SDS011;41154;45.394;5.734;2023-12-20T13:22:03;26.52;;;12.15;;
55288;SDS011;41154;45.394;5.734;2023-12-20T13:24:29;23.70;;;11.68;;
55288;SDS011;41154;45.394;5.734;2023-12-20T13:26:55;23.45;;;12.23;;
55288;SDS011;41154;45.394;5.734;2023-12-20T13:32:49;33.08;;;14.88;;
55288;SDS011;41154;45.394;5.734;2023-12-20T13:35:15;34.25;;;15.00;;
55288;SDS011;41154;45.394;5.734;2023-12-20T13:37:40;30.92;;;12.75;;
55288;SDS011;41154;45.394;5.734;2023-12-20T13:40:06;27.17;;;11.20;;
55288;SDS011;41154;45.394;5.734;2023-12-20T13:42:32;23.80;;;11.13;;
55288;SDS011;41154;45.394;5.734;2023-12-20T13:44:57;21.77;;;10.77;;
55288;SDS011;41154;45.394;5.734;2023-12-20T13:47:23;23.10;;;10.98;;
55288;SDS011;41154;45.394;5.734;2023-12-20T13:56:19;27.33;;;12.68;;
55288;SDS011;41154;45.394;5.734;2023-12-20T13:58:45;29.48;;;14.10;;
55288;SDS011;41154;45.394;5.734;2023-12-20T14:01:12;22.85;;;10.88;;
55288;SDS011;41154;45.394;5.734;2023-12-20T14:10:33;23.10;;;11.52;;
55288;SDS011;41154;45.394;5.734;2023-12-20T14:12:59;21.75;;;11.60;;
55288;SDS011;41154;45.394;5.734;2023-12-20T14:15:24;28.20;;;12.30;;
55288;SDS011;41154;45.394;5.734;2023-12-20T14:17:50;23.52;;;11.95;;
55288;SDS011;41154;45.394;5.734;2023-12-20T14:20:16;22.73;;;11.73;;
55288;SDS011;41154;45.394;5.734;2023-12-20T14:26:11;20.23;;;9.82;;
55288;SDS011;41154;45.394;5.734;2023-12-20T14:28:42;24.10;;;10.15;;
55288;SDS011;41154;45.394;5.734;2023-12-20T14:31:08;20.40;;;10.23;;
55288;SDS011;41154;45.394;5.734;2023-12-20T14:33:35;19.48;;;9.23;;
55288;SDS011;41154;45.394;5.734;2023-12-20T14:36:04;20.58;;;9.40;;
55288;SDS011;41154;45.394;5.734;2023-12-20T14:45:27;13.70;;;7.78;;
55288;SDS011;41154;45.394;5.734;2023-12-20T14:47:53;15.45;;;7.50;;
55288;SDS011;41154;45.394;5.734;2023-12-20T14:50:18;15.13;;;7.47;;
55288;SDS011;41154;45.394;5.734;2023-12-20T14:56:12;13.80;;;7.68;;
55288;SDS011;41154;45.394;5.734;2023-12-20T14:58:38;15.32;;;6.88;;
55288;SDS011;41154;45.394;5.734;2023-12-20T15:01:03;16.50;;;6.38;;
55288;SDS011;41154;45.394;5.734;2023-12-20T15:03:29;12.07;;;6.13;;
55288;SDS011;41154;45.394;5.734;2023-12-20T15:05:55;10.60;;;6.28;;